sensor_id;sensor_type;location;lat;lon;timestamp;pressure;altitude;pressure_sealevel;temperature;humidity
41078;BME280;26823;42.662;23.352;2023-06-14T00:01:44;94521.59;;;15.78;100.00
41078;BME280;26823;42.662;23.352;2023-06-14T00:04:14;94521.81;;;15.81;100.00
41078;BME280;26823;42.662;23.352;2023-06-14T00:06:42;94514.69;;;15.72;100.00
41078;BME280;26823;42.662;23.352;2023-06-14T00:09:10;94524.81;;;15.80;100.00
41078;BME280;26823;42.662;23.352;2023-06-14T00:11:35;94510.91;;;15.81;100.00
41078;BME280;26823;42.662;23.352;2023-06-14T00:14:01;94515.34;;;15.77;100.00
41078;BME280;26823;42.662;23.352;2023-06-14T00:16:28;94499.47;;;15.71;100.00
41078;BME280;26823;42.662;23.352;2023-06-14T00:18:53;94493.69;;;15.72;100.00
41078;BME280;26823;42.662;23.352;2023-06-14T00:21:18;94500.00;;;15.81;100.00
41078;BME280;26823;42.662;23.352;2023-06-14T00:23:44;94493.88;;;15.76;100.00
41078;BME280;26823;42.662;23.352;2023-06-14T00:26:09;94497.56;;;15.80;100.00
41078;BME280;26823;42.662;23.352;2023-06-14T00:28:35;94495.78;;;15.75;100.00
41078;BME280;26823;42.662;23.352;2023-06-14T00:31:02;94500.78;;;15.82;100.00
41078;BME280;26823;42.662;23.352;2023-06-14T00:33:28;94492.88;;;15.72;100.00
41078;BME280;26823;42.662;23.352;2023-06-14T00:35:53;94496.44;;;15.81;100.00
41078;BME280;26823;42.662;23.352;2023-06-14T00:38:21;94486.00;;;15.74;100.00
41078;BME280;26823;42.662;23.352;2023-06-14T00:40:47;94482.78;;;15.72;100.00
41078;BME280;26823;42.662;23.352;2023-06-14T00:43:12;94494.34;;;15.78;100.00
41078;BME280;26823;42.662;23.352;2023-06-14T00:45:38;94492.44;;;15.78;100.00
41078;BME280;26823;42.662;23.352;2023-06-14T00:48:04;94471.56;;;15.74;100.00
41078;BME280;26823;42.662;23.352;2023-06-14T00:50:31;94475.75;;;15.80;100.00
41078;BME280;26823;42.662;23.352;2023-06-14T00:52:59;94479.59;;;15.79;100.00
41078;BME280;26823;42.662;23.352;2023-06-14T00:55:26;94478.78;;;15.78;100.00
41078;BME280;26823;42.662;23.352;2023-06-14T00:57:55;94474.63;;;15.72;100.00
41078;BME280;26823;42.662;23.352;2023-06-14T01:00:21;94485.03;;;15.79;100.00
41078;BME280;26823;42.662;23.352;2023-06-14T01:02:47;94475.56;;;15.76;100.00
41078;BME280;26823;42.662;23.352;2023-06-14T01:05:13;94484.13;;;15.84;100.00
41078;BME280;26823;42.662;23.352;2023-06-14T01:15:07;94487.47;;;16.07;100.00
41078;BME280;26823;42.662;23.352;2023-06-14T01:17:35;94475.63;;;15.94;100.00
41078;BME280;26823;42.662;23.352;2023-06-14T01:20:03;94479.13;;;15.94;100.00
41078;BME280;26823;42.662;23.352;2023-06-14T01:22:34;94479.13;;;15.86;100.00
41078;BME280;26823;42.662;23.352;2023-06-14T01:25:01;94482.19;;;15.84;100.00
41078;BME280;26823;42.662;23.352;2023-06-14T01:27:26;94485.56;;;15.90;100.00
41078;BME280;26823;42.662;23.352;2023-06-14T01:29:55;94486.69;;;15.97;100.00
41078;BME280;26823;42.662;23.352;2023-06-14T01:32:26;94469.47;;;15.79;100.00
41078;BME280;26823;42.662;23.352;2023-06-14T01:34:53;94482.31;;;15.79;100.00
41078;BME280;26823;42.662;23.352;2023-06-14T01:37:19;94476.69;;;15.75;100.00
41078;BME280;26823;42.662;23.352;2023-06-14T01:39:47;94476.09;;;15.96;100.00
41078;BME280;26823;42.662;23.352;2023-06-14T01:42:14;94473.38;;;15.87;100.00
41078;BME280;26823;42.662;23.352;2023-06-14T01:44:42;94474.16;;;15.88;100.00
41078;BME280;26823;42.662;23.352;2023-06-14T01:47:08;94481.41;;;15.84;100.00
41078;BME280;26823;42.662;23.352;2023-06-14T01:49:34;94476.84;;;15.79;100.00
41078;BME280;26823;42.662;23.352;2023-06-14T01:52:06;94468.66;;;15.70;100.00
41078;BME280;26823;42.662;23.352;2023-06-14T01:54:35;94468.69;;;15.79;100.00
41078;BME280;26823;42.662;23.352;2023-06-14T01:57:03;94473.34;;;15.78;100.00
41078;BME280;26823;42.662;23.352;2023-06-14T01:59:28;94474.44;;;15.69;100.00
41078;BME280;26823;42.662;23.352;2023-06-14T02:01:54;94486.47;;;15.76;100.00
41078;BME280;26823;42.662;23.352;2023-06-14T02:04:19;94496.91;;;15.74;100.00
41078;BME280;26823;42.662;23.352;2023-06-14T02:06:44;94456.81;;;15.66;100.00
41078;BME280;26823;42.662;23.352;2023-06-14T02:09:10;94491.47;;;15.83;100.00
41078;BME280;26823;42.662;23.352;2023-06-14T02:11:35;94483.94;;;15.80;100.00
41078;BME280;26823;42.662;23.352;2023-06-14T02:14:00;94494.22;;;15.83;100.00
41078;BME280;26823;42.662;23.352;2023-06-14T02:16:27;94488.41;;;15.76;100.00
41078;BME280;26823;42.662;23.352;2023-06-14T02:18:53;94504.63;;;15.81;100.00
41078;BME280;26823;42.662;23.352;2023-06-14T02:21:19;94506.41;;;15.86;100.00
41078;BME280;26823;42.662;23.352;2023-06-14T02:23:44;94499.47;;;15.71;100.00
41078;BME280;26823;42.662;23.352;2023-06-14T02:26:10;94508.66;;;15.84;100.00
41078;BME280;26823;42.662;23.352;2023-06-14T02:28:35;94511.00;;;15.68;100.00
41078;BME280;26823;42.662;23.352;2023-06-14T02:31:01;94507.78;;;15.74;100.00
41078;BME280;26823;42.662;23.352;2023-06-14T02:33:26;94511.19;;;15.71;100.00
41078;BME280;26823;42.662;23.352;2023-06-14T02:35:51;94506.66;;;15.66;100.00
41078;BME280;26823;42.662;23.352;2023-06-14T02:38:18;94507.16;;;15.69;100.00
41078;BME280;26823;42.662;23.352;2023-06-14T02:40:43;94517.13;;;15.73;100.00
41078;BME280;26823;42.662;23.352;2023-06-14T02:43:08;94504.25;;;15.65;100.00
41078;BME280;26823;42.662;23.352;2023-06-14T02:45:34;94501.38;;;15.61;100.00
41078;BME280;26823;42.662;23.352;2023-06-14T02:47:59;94504.75;;;15.58;100.00
41078;BME280;26823;42.662;23.352;2023-06-14T02:50:25;94506.03;;;15.61;100.00
41078;BME280;26823;42.662;23.352;2023-06-14T02:52:51;94501.69;;;15.60;100.00
41078;BME280;26823;42.662;23.352;2023-06-14T02:55:18;94514.97;;;15.53;100.00
41078;BME280;26823;42.662;23.352;2023-06-14T02:57:43;94505.69;;;15.54;100.00
41078;BME280;26823;42.662;23.352;2023-06-14T03:00:09;94513.88;;;15.62;100.00
41078;BME280;26823;42.662;23.352;2023-06-14T03:02:38;94521.75;;;15.64;100.00
41078;BME280;26823;42.662;23.352;2023-06-14T03:05:03;94503.91;;;15.58;100.00
41078;BME280;26823;42.662;23.352;2023-06-14T03:07:31;94513.25;;;15.57;100.00
41078;BME280;26823;42.662;23.352;2023-06-14T03:09:57;94518.19;;;15.55;100.00
41078;BME280;26823;42.662;23.352;2023-06-14T03:12:23;94511.47;;;15.61;100.00
41078;BME280;26823;42.662;23.352;2023-06-14T03:14:56;94489.63;;;15.35;100.00
41078;BME280;26823;42.662;23.352;2023-06-14T03:17:22;94520.25;;;15.49;100.00
41078;BME280;26823;42.662;23.352;2023-06-14T03:19:47;94522.34;;;15.43;100.00
41078;BME280;26823;42.662;23.352;2023-06-14T03:22:12;94513.50;;;15.38;100.00
41078;BME280;26823;42.662;23.352;2023-06-14T03:24:38;94524.56;;;15.41;100.00
41078;BME280;26823;42.662;23.352;2023-06-14T03:27:03;94522.00;;;15.45;100.00
41078;BME280;26823;42.662;23.352;2023-06-14T03:29:29;94525.72;;;15.58;100.00
41078;BME280;26823;42.662;23.352;2023-06-14T03:31:59;94525.41;;;15.51;100.00
41078;BME280;26823;42.662;23.352;2023-06-14T03:34:25;94522.03;;;15.54;100.00
41078;BME280;26823;42.662;23.352;2023-06-14T03:36:51;94529.44;;;15.53;100.00
41078;BME280;26823;42.662;23.352;2023-06-14T03:39:16;94532.91;;;15.45;100.00
41078;BME280;26823;42.662;23.352;2023-06-14T03:41:41;94523.94;;;15.44;100.00
41078;BME280;26823;42.662;23.352;2023-06-14T03:44:07;94534.84;;;15.44;100.00
41078;BME280;26823;42.662;23.352;2023-06-14T03:46:32;94538.38;;;15.45;100.00
41078;BME280;26823;42.662;23.352;2023-06-14T03:48:58;94536.75;;;15.44;100.00
41078;BME280;26823;42.662;23.352;2023-06-14T03:51:23;94537.41;;;15.41;100.00
41078;BME280;26823;42.662;23.352;2023-06-14T03:53:50;94529.41;;;15.44;100.00
41078;BME280;26823;42.662;23.352;2023-06-14T03:56:18;94534.53;;;15.46;100.00
41078;BME280;26823;42.662;23.352;2023-06-14T03:58:43;94539.34;;;15.49;100.00
41078;BME280;26823;42.662;23.352;2023-06-14T04:01:09;94537.25;;;15.46;100.00
41078;BME280;26823;42.662;23.352;2023-06-14T04:03:34;94533.25;;;15.43;100.00
41078;BME280;26823;42.662;23.352;2023-06-14T04:06:00;94539.31;;;15.40;100.00
41078;BME280;26823;42.662;23.352;2023-06-14T04:08:26;94539.81;;;15.42;100.00
41078;BME280;26823;42.662;23.352;2023-06-14T04:10:51;94541.41;;;15.43;100.00
41078;BME280;26823;42.662;23.352;2023-06-14T04:13:17;94537.91;;;15.52;100.00
41078;BME280;26823;42.662;23.352;2023-06-14T04:15:42;94538.22;;;15.50;100.00
41078;BME280;26823;42.662;23.352;2023-06-14T04:18:09;94548.19;;;15.55;100.00
41078;BME280;26823;42.662;23.352;2023-06-14T04:20:34;94540.78;;;15.55;100.00
41078;BME280;26823;42.662;23.352;2023-06-14T04:23:12;94542.25;;;15.61;100.00
41078;BME280;26823;42.662;23.352;2023-06-14T04:25:38;94547.13;;;15.73;100.00
41078;BME280;26823;42.662;23.352;2023-06-14T04:28:03;94544.84;;;15.66;100.00
41078;BME280;26823;42.662;23.352;2023-06-14T04:30:29;94543.72;;;15.68;100.00
41078;BME280;26823;42.662;23.352;2023-06-14T04:32:56;94545.56;;;15.90;100.00
41078;BME280;26823;42.662;23.352;2023-06-14T04:35:31;94546.53;;;15.94;100.00
41078;BME280;26823;42.662;23.352;2023-06-14T04:37:57;94544.44;;;16.08;100.00
41078;BME280;26823;42.662;23.352;2023-06-14T04:40:23;94551.69;;;16.13;100.00
41078;BME280;26823;42.662;23.352;2023-06-14T04:42:49;94542.38;;;16.23;100.00
41078;BME280;26823;42.662;23.352;2023-06-14T04:45:16;94553.91;;;16.37;100.00
41078;BME280;26823;42.662;23.352;2023-06-14T04:47:41;94548.47;;;16.37;100.00
41078;BME280;26823;42.662;23.352;2023-06-14T04:50:07;94543.97;;;16.33;100.00
41078;BME280;26823;42.662;23.352;2023-06-14T04:52:33;94551.53;;;16.27;100.00
41078;BME280;26823;42.662;23.352;2023-06-14T04:55:00;94551.69;;;16.22;100.00
41078;BME280;26823;42.662;23.352;2023-06-14T04:57:26;94557.59;;;16.33;100.00
41078;BME280;26823;42.662;23.352;2023-06-14T04:59:52;94548.13;;;16.47;100.00
41078;BME280;26823;42.662;23.352;2023-06-14T05:02:24;94555.69;;;16.51;100.00
41078;BME280;26823;42.662;23.352;2023-06-14T05:04:50;94561.78;;;16.56;100.00
41078;BME280;26823;42.662;23.352;2023-06-14T05:07:15;94561.63;;;16.35;100.00
41078;BME280;26823;42.662;23.352;2023-06-14T05:09:41;94571.28;;;16.15;100.00
41078;BME280;26823;42.662;23.352;2023-06-14T05:12:07;94574.13;;;16.27;100.00
41078;BME280;26823;42.662;23.352;2023-06-14T05:14:36;94565.00;;;16.41;100.00
41078;BME280;26823;42.662;23.352;2023-06-14T05:17:02;94567.91;;;16.36;100.00
41078;BME280;26823;42.662;23.352;2023-06-14T05:19:30;94569.50;;;16.37;100.00
41078;BME280;26823;42.662;23.352;2023-06-14T05:21:55;94570.47;;;16.50;100.00
41078;BME280;26823;42.662;23.352;2023-06-14T05:24:20;94565.78;;;16.68;100.00
41078;BME280;26823;42.662;23.352;2023-06-14T05:26:46;94586.34;;;16.74;100.00
41078;BME280;26823;42.662;23.352;2023-06-14T05:29:12;94579.91;;;16.78;100.00
41078;BME280;26823;42.662;23.352;2023-06-14T05:31:38;94579.91;;;16.87;100.00
41078;BME280;26823;42.662;23.352;2023-06-14T05:34:12;94592.59;;;17.01;100.00
41078;BME280;26823;42.662;23.352;2023-06-14T05:36:38;94580.03;;;16.82;100.00
41078;BME280;26823;42.662;23.352;2023-06-14T05:39:04;94573.81;;;16.55;100.00
41078;BME280;26823;42.662;23.352;2023-06-14T05:41:31;94592.13;;;16.72;100.00
41078;BME280;26823;42.662;23.352;2023-06-14T05:43:57;94591.97;;;16.95;100.00
41078;BME280;26823;42.662;23.352;2023-06-14T05:46:23;94591.28;;;16.89;100.00
41078;BME280;26823;42.662;23.352;2023-06-14T05:48:54;94589.53;;;16.93;100.00
41078;BME280;26823;42.662;23.352;2023-06-14T05:51:20;94598.38;;;16.99;100.00
41078;BME280;26823;42.662;23.352;2023-06-14T05:53:52;94602.41;;;16.93;100.00
41078;BME280;26823;42.662;23.352;2023-06-14T05:56:18;94605.28;;;16.97;100.00
41078;BME280;26823;42.662;23.352;2023-06-14T05:58:44;94601.09;;;16.99;100.00
41078;BME280;26823;42.662;23.352;2023-06-14T06:01:10;94585.84;;;16.80;100.00
41078;BME280;26823;42.662;23.352;2023-06-14T06:03:36;94584.88;;;16.76;100.00
41078;BME280;26823;42.662;23.352;2023-06-14T06:06:02;94608.03;;;16.97;100.00
41078;BME280;26823;42.662;23.352;2023-06-14T06:08:28;94594.81;;;16.99;100.00
41078;BME280;26823;42.662;23.352;2023-06-14T06:10:53;94608.44;;;17.25;100.00
41078;BME280;26823;42.662;23.352;2023-06-14T06:13:19;94605.66;;;17.34;100.00
41078;BME280;26823;42.662;23.352;2023-06-14T06:15:44;94598.59;;;17.33;100.00
41078;BME280;26823;42.662;23.352;2023-06-14T06:18:10;94575.34;;;17.18;100.00
41078;BME280;26823;42.662;23.352;2023-06-14T06:20:35;94579.34;;;17.29;100.00
41078;BME280;26823;42.662;23.352;2023-06-14T06:23:01;94604.19;;;17.45;100.00
41078;BME280;26823;42.662;23.352;2023-06-14T06:25:27;94584.28;;;17.36;100.00
41078;BME280;26823;42.662;23.352;2023-06-14T06:27:54;94612.16;;;17.59;100.00
41078;BME280;26823;42.662;23.352;2023-06-14T06:30:20;94609.84;;;17.40;100.00
41078;BME280;26823;42.662;23.352;2023-06-14T06:32:46;94610.97;;;17.39;100.00
41078;BME280;26823;42.662;23.352;2023-06-14T06:35:11;94622.06;;;17.34;100.00
41078;BME280;26823;42.662;23.352;2023-06-14T06:37:38;94607.31;;;17.17;100.00
41078;BME280;26823;42.662;23.352;2023-06-14T06:40:04;94611.84;;;17.13;100.00
41078;BME280;26823;42.662;23.352;2023-06-14T06:42:34;94621.47;;;17.19;100.00
41078;BME280;26823;42.662;23.352;2023-06-14T06:44:59;94609.88;;;17.22;100.00
41078;BME280;26823;42.662;23.352;2023-06-14T06:47:25;94586.94;;;17.06;100.00
41078;BME280;26823;42.662;23.352;2023-06-14T06:49:50;94613.44;;;17.23;100.00
41078;BME280;26823;42.662;23.352;2023-06-14T06:52:16;94625.66;;;17.17;100.00
41078;BME280;26823;42.662;23.352;2023-06-14T06:54:41;94621.75;;;17.26;100.00
41078;BME280;26823;42.662;23.352;2023-06-14T06:57:07;94628.56;;;17.20;100.00
41078;BME280;26823;42.662;23.352;2023-06-14T06:59:33;94625.66;;;17.17;100.00
41078;BME280;26823;42.662;23.352;2023-06-14T07:01:58;94627.22;;;17.26;100.00
41078;BME280;26823;42.662;23.352;2023-06-14T07:04:24;94622.59;;;17.27;100.00
41078;BME280;26823;42.662;23.352;2023-06-14T07:06:49;94620.78;;;17.31;100.00
41078;BME280;26823;42.662;23.352;2023-06-14T07:09:15;94627.22;;;17.26;100.00
41078;BME280;26823;42.662;23.352;2023-06-14T07:11:42;94625.00;;;17.20;100.00
41078;BME280;26823;42.662;23.352;2023-06-14T07:14:07;94631.13;;;17.17;100.00
41078;BME280;26823;42.662;23.352;2023-06-14T07:16:33;94617.88;;;17.36;100.00
41078;BME280;26823;42.662;23.352;2023-06-14T07:18:59;94611.44;;;17.41;100.00
41078;BME280;26823;42.662;23.352;2023-06-14T07:21:25;94624.72;;;17.60;100.00
41078;BME280;26823;42.662;23.352;2023-06-14T07:23:54;94612.78;;;17.73;100.00
41078;BME280;26823;42.662;23.352;2023-06-14T07:26:20;94613.47;;;17.91;100.00
41078;BME280;26823;42.662;23.352;2023-06-14T07:28:46;94624.84;;;18.32;100.00
41078;BME280;26823;42.662;23.352;2023-06-14T07:31:13;94621.00;;;18.97;92.51
41078;BME280;26823;42.662;23.352;2023-06-14T07:33:39;94619.06;;;19.43;92.21
41078;BME280;26823;42.662;23.352;2023-06-14T07:36:05;94616.72;;;20.03;88.84
41078;BME280;26823;42.662;23.352;2023-06-14T07:38:30;94618.69;;;20.03;88.55
41078;BME280;26823;42.662;23.352;2023-06-14T07:40:56;94616.03;;;20.31;85.86
41078;BME280;26823;42.662;23.352;2023-06-14T07:43:21;94607.03;;;19.23;86.74
41078;BME280;26823;42.662;23.352;2023-06-14T07:45:46;94610.09;;;19.21;90.08
41078;BME280;26823;42.662;23.352;2023-06-14T07:48:12;94613.03;;;19.62;89.06
41078;BME280;26823;42.662;23.352;2023-06-14T07:50:37;94622.38;;;19.49;88.00
41078;BME280;26823;42.662;23.352;2023-06-14T07:53:03;94624.09;;;19.41;87.97
41078;BME280;26823;42.662;23.352;2023-06-14T07:55:28;94621.81;;;19.43;89.00
41078;BME280;26823;42.662;23.352;2023-06-14T07:57:54;94630.75;;;19.65;87.61
41078;BME280;26823;42.662;23.352;2023-06-14T08:00:20;94618.56;;;19.99;86.45
41078;BME280;26823;42.662;23.352;2023-06-14T08:02:46;94632.00;;;19.80;84.83
41078;BME280;26823;42.662;23.352;2023-06-14T08:05:11;94633.19;;;19.91;85.35
41078;BME280;26823;42.662;23.352;2023-06-14T08:07:38;94637.38;;;20.50;84.64
41078;BME280;26823;42.662;23.352;2023-06-14T08:10:05;94643.47;;;20.97;80.91
41078;BME280;26823;42.662;23.352;2023-06-14T08:12:32;94653.97;;;20.54;79.32
41078;BME280;26823;42.662;23.352;2023-06-14T08:14:57;94650.22;;;20.34;79.94
41078;BME280;26823;42.662;23.352;2023-06-14T08:17:22;94651.28;;;20.82;80.20
41078;BME280;26823;42.662;23.352;2023-06-14T08:19:48;94660.13;;;20.63;79.67
41078;BME280;26823;42.662;23.352;2023-06-14T08:22:13;94658.34;;;20.30;78.63
41078;BME280;26823;42.662;23.352;2023-06-14T08:24:39;94655.72;;;20.21;79.98
41078;BME280;26823;42.662;23.352;2023-06-14T08:27:06;94656.19;;;20.24;80.59
41078;BME280;26823;42.662;23.352;2023-06-14T08:29:31;94654.00;;;19.92;82.27
41078;BME280;26823;42.662;23.352;2023-06-14T08:31:57;94652.63;;;19.74;83.16
41078;BME280;26823;42.662;23.352;2023-06-14T08:34:22;94652.63;;;19.86;83.00
41078;BME280;26823;42.662;23.352;2023-06-14T08:36:51;94656.19;;;19.86;84.37
41078;BME280;26823;42.662;23.352;2023-06-14T08:39:16;94663.59;;;19.86;84.33
41078;BME280;26823;42.662;23.352;2023-06-14T08:41:44;94649.13;;;19.98;83.18
41078;BME280;26823;42.662;23.352;2023-06-14T08:44:11;94642.22;;;20.16;82.53
41078;BME280;26823;42.662;23.352;2023-06-14T08:46:37;94652.84;;;20.43;80.17
41078;BME280;26823;42.662;23.352;2023-06-14T08:49:03;94645.44;;;20.43;79.06
41078;BME280;26823;42.662;23.352;2023-06-14T08:51:31;94635.09;;;20.65;79.50
41078;BME280;26823;42.662;23.352;2023-06-14T08:54:00;94636.22;;;20.64;81.17
41078;BME280;26823;42.662;23.352;2023-06-14T08:56:27;94646.34;;;21.00;78.79
41078;BME280;26823;42.662;23.352;2023-06-14T08:58:54;94649.88;;;21.29;78.42
41078;BME280;26823;42.662;23.352;2023-06-14T09:01:20;94653.63;;;21.53;77.01
41078;BME280;26823;42.662;23.352;2023-06-14T09:03:53;94639.63;;;21.14;78.13
41078;BME280;26823;42.662;23.352;2023-06-14T09:06:20;94649.41;;;20.71;77.54
41078;BME280;26823;42.662;23.352;2023-06-14T09:08:48;94646.59;;;20.17;77.37
41078;BME280;26823;42.662;23.352;2023-06-14T09:11:15;94646.47;;;20.26;77.55
41078;BME280;26823;42.662;23.352;2023-06-14T09:13:41;94638.34;;;20.05;77.88
41078;BME280;26823;42.662;23.352;2023-06-14T09:16:08;94615.25;;;19.94;78.22
41078;BME280;26823;42.662;23.352;2023-06-14T09:18:40;94632.28;;;20.12;79.41
41078;BME280;26823;42.662;23.352;2023-06-14T09:21:10;94625.63;;;20.25;79.15
41078;BME280;26823;42.662;23.352;2023-06-14T09:23:47;94639.94;;;20.43;79.91
41078;BME280;26823;42.662;23.352;2023-06-14T09:26:19;94638.41;;;20.58;79.39
41078;BME280;26823;42.662;23.352;2023-06-14T09:28:46;94633.38;;;20.60;78.60
41078;BME280;26823;42.662;23.352;2023-06-14T09:31:12;94636.75;;;20.82;78.39
41078;BME280;26823;42.662;23.352;2023-06-14T09:33:38;94630.38;;;21.06;76.03
41078;BME280;26823;42.662;23.352;2023-06-14T09:36:11;94632.97;;;21.15;74.84
41078;BME280;26823;42.662;23.352;2023-06-14T09:38:40;94627.53;;;21.31;73.35
41078;BME280;26823;42.662;23.352;2023-06-14T09:41:06;94622.13;;;21.50;75.03
41078;BME280;26823;42.662;23.352;2023-06-14T09:43:33;94629.47;;;21.91;73.19
41078;BME280;26823;42.662;23.352;2023-06-14T09:46:00;94615.41;;;21.80;73.83
41078;BME280;26823;42.662;23.352;2023-06-14T09:48:26;94619.78;;;21.81;73.00
41078;BME280;26823;42.662;23.352;2023-06-14T09:50:51;94622.97;;;21.83;72.35
41078;BME280;26823;42.662;23.352;2023-06-14T09:53:21;94619.97;;;21.88;70.28
41078;BME280;26823;42.662;23.352;2023-06-14T09:55:49;94615.03;;;21.49;70.28
41078;BME280;26823;42.662;23.352;2023-06-14T09:58:16;94612.59;;;21.60;71.76
41078;BME280;26823;42.662;23.352;2023-06-14T10:00:42;94607.44;;;21.91;71.07
41078;BME280;26823;42.662;23.352;2023-06-14T10:03:14;94606.97;;;21.89;71.92
41078;BME280;26823;42.662;23.352;2023-06-14T10:05:43;94608.13;;;22.04;72.40
41078;BME280;26823;42.662;23.352;2023-06-14T10:08:14;94598.72;;;22.05;73.29
41078;BME280;26823;42.662;23.352;2023-06-14T10:10:42;94599.97;;;21.59;70.75
41078;BME280;26823;42.662;23.352;2023-06-14T10:13:07;94589.31;;;21.90;71.99
41078;BME280;26823;42.662;23.352;2023-06-14T10:20:37;94589.22;;;22.18;68.50
41078;BME280;26823;42.662;23.352;2023-06-14T10:23:19;94591.00;;;21.94;67.90
41078;BME280;26823;42.662;23.352;2023-06-14T10:25:50;94591.19;;;21.70;67.77
41078;BME280;26823;42.662;23.352;2023-06-14T10:28:22;94586.88;;;22.20;67.87
41078;BME280;26823;42.662;23.352;2023-06-14T10:31:15;94587.28;;;22.38;68.27
41078;BME280;26823;42.662;23.352;2023-06-14T10:33:55;94586.75;;;22.48;66.87
41078;BME280;26823;42.662;23.352;2023-06-14T10:36:31;94591.31;;;22.60;66.93
41078;BME280;26823;42.662;23.352;2023-06-14T10:38:59;94591.03;;;22.66;67.79
41078;BME280;26823;42.662;23.352;2023-06-14T10:41:26;94587.75;;;22.24;66.47
41078;BME280;26823;42.662;23.352;2023-06-14T10:46:35;94581.69;;;21.99;68.31
41078;BME280;26823;42.662;23.352;2023-06-14T10:49:01;94576.69;;;22.21;67.33
41078;BME280;26823;42.662;23.352;2023-06-14T10:51:29;94564.84;;;22.20;66.45
41078;BME280;26823;42.662;23.352;2023-06-14T10:53:56;94568.75;;;21.67;64.81
41078;BME280;26823;42.662;23.352;2023-06-14T10:56:30;94567.47;;;21.81;66.77
41078;BME280;26823;42.662;23.352;2023-06-14T10:59:09;94560.94;;;22.21;67.44
41078;BME280;26823;42.662;23.352;2023-06-14T11:02:19;94546.78;;;22.58;66.97
41078;BME280;26823;42.662;23.352;2023-06-14T11:04:52;94557.78;;;21.87;65.27
41078;BME280;26823;42.662;23.352;2023-06-14T11:12:56;94553.47;;;22.22;65.47
41078;BME280;26823;42.662;23.352;2023-06-14T11:15:28;94548.94;;;22.29;66.22
41078;BME280;26823;42.662;23.352;2023-06-14T11:17:53;94536.81;;;21.98;66.33
41078;BME280;26823;42.662;23.352;2023-06-14T11:20:25;94542.88;;;22.24;67.33
41078;BME280;26823;42.662;23.352;2023-06-14T11:22:51;94546.59;;;22.47;66.28
41078;BME280;26823;42.662;23.352;2023-06-14T11:25:17;94545.06;;;22.50;65.77
41078;BME280;26823;42.662;23.352;2023-06-14T11:27:43;94526.16;;;22.13;64.52
41078;BME280;26823;42.662;23.352;2023-06-14T11:30:09;94526.00;;;22.25;65.59
41078;BME280;26823;42.662;23.352;2023-06-14T11:32:35;94533.09;;;22.42;66.51
41078;BME280;26823;42.662;23.352;2023-06-14T11:35:05;94534.72;;;22.27;63.77
41078;BME280;26823;42.662;23.352;2023-06-14T11:37:55;94545.84;;;22.15;63.69
41078;BME280;26823;42.662;23.352;2023-06-14T11:40:26;94529.31;;;22.51;64.63
41078;BME280;26823;42.662;23.352;2023-06-14T11:42:58;94532.75;;;22.28;65.23
41078;BME280;26823;42.662;23.352;2023-06-14T11:45:25;94511.06;;;22.26;64.85
41078;BME280;26823;42.662;23.352;2023-06-14T11:47:50;94524.09;;;22.45;64.07
41078;BME280;26823;42.662;23.352;2023-06-14T11:50:15;94511.75;;;22.78;61.88
41078;BME280;26823;42.662;23.352;2023-06-14T11:52:41;94513.91;;;22.89;63.06
41078;BME280;26823;42.662;23.352;2023-06-14T11:55:07;94496.09;;;22.63;63.61
41078;BME280;26823;42.662;23.352;2023-06-14T11:57:36;94503.06;;;22.76;64.47
41078;BME280;26823;42.662;23.352;2023-06-14T12:00:06;94495.00;;;22.87;63.74
41078;BME280;26823;42.662;23.352;2023-06-14T12:02:38;94503.56;;;22.82;61.55
41078;BME280;26823;42.662;23.352;2023-06-14T12:05:06;94499.84;;;22.35;60.38
41078;BME280;26823;42.662;23.352;2023-06-14T12:07:42;94486.16;;;22.58;62.12
41078;BME280;26823;42.662;23.352;2023-06-14T12:10:08;94480.72;;;22.62;61.96
41078;BME280;26823;42.662;23.352;2023-06-14T12:12:39;94491.66;;;22.58;60.87
41078;BME280;26823;42.662;23.352;2023-06-14T12:15:09;94481.53;;;22.62;59.97
41078;BME280;26823;42.662;23.352;2023-06-14T12:17:37;94490.00;;;22.93;60.51
41078;BME280;26823;42.662;23.352;2023-06-14T12:20:08;94474.47;;;22.85;62.85
41078;BME280;26823;42.662;23.352;2023-06-14T12:22:37;94470.28;;;22.52;61.90
41078;BME280;26823;42.662;23.352;2023-06-14T12:25:04;94476.28;;;22.77;61.71
41078;BME280;26823;42.662;23.352;2023-06-14T12:27:30;94475.84;;;22.75;63.98
41078;BME280;26823;42.662;23.352;2023-06-14T12:30:02;94471.16;;;22.56;62.82
41078;BME280;26823;42.662;23.352;2023-06-14T12:32:34;94475.28;;;22.66;63.37
41078;BME280;26823;42.662;23.352;2023-06-14T12:34:59;94463.41;;;22.61;63.52
41078;BME280;26823;42.662;23.352;2023-06-14T12:37:25;94463.88;;;22.28;62.49
41078;BME280;26823;42.662;23.352;2023-06-14T12:39:50;94457.91;;;22.61;63.66
41078;BME280;26823;42.662;23.352;2023-06-14T12:42:16;94463.78;;;22.60;62.41
41078;BME280;26823;42.662;23.352;2023-06-14T12:44:41;94465.50;;;22.68;62.72
41078;BME280;26823;42.662;23.352;2023-06-14T12:47:07;94457.47;;;22.83;63.17
41078;BME280;26823;42.662;23.352;2023-06-14T12:49:33;94462.38;;;22.70;63.03
41078;BME280;26823;42.662;23.352;2023-06-14T12:51:58;94446.66;;;22.51;62.53
41078;BME280;26823;42.662;23.352;2023-06-14T12:54:24;94453.53;;;22.60;64.12
41078;BME280;26823;42.662;23.352;2023-06-14T12:56:53;94446.13;;;22.25;62.65
41078;BME280;26823;42.662;23.352;2023-06-14T12:59:20;94454.38;;;22.25;64.07
41078;BME280;26823;42.662;23.352;2023-06-14T13:01:45;94443.38;;;22.25;65.09
41078;BME280;26823;42.662;23.352;2023-06-14T13:04:12;94449.03;;;22.32;64.58
41078;BME280;26823;42.662;23.352;2023-06-14T13:06:38;94454.53;;;22.32;64.01